createdAt,value
2019-03-29T00:00:41.097Z,0.00
2019-03-29T00:01:41.233Z,0.00
2019-03-29T00:02:41.349Z,0.00
2019-03-29T00:03:41.488Z,0.00
2019-03-29T00:04:41.626Z,0.00
2019-03-29T00:05:41.760Z,0.00
2019-03-29T00:06:41.874Z,0.00
2019-03-29T00:07:42.253Z,0.00
2019-03-29T00:08:42.148Z,0.00
2019-03-29T00:09:42.279Z,0.00
2019-03-29T00:10:42.411Z,0.00
2019-03-29T00:11:42.542Z,0.00
2019-03-29T00:12:42.682Z,0.00
2019-03-29T00:13:42.821Z,0.00
2019-03-29T00:14:42.950Z,0.00
2019-03-29T00:15:43.074Z,0.00
2019-03-29T00:16:43.256Z,0.00
2019-03-29T00:17:44.013Z,0.00
2019-03-29T00:18:43.509Z,0.00
2019-03-29T00:19:43.642Z,0.00
2019-03-29T00:20:43.797Z,0.00
2019-03-29T00:21:43.921Z,0.00
2019-03-29T00:22:44.054Z,0.00
2019-03-29T00:23:44.177Z,0.00
2019-03-29T00:24:44.319Z,0.00
2019-03-29T00:25:44.456Z,0.00
2019-03-29T00:26:44.586Z,0.00
2019-03-29T00:27:44.918Z,0.00
2019-03-29T00:28:44.864Z,0.00
2019-03-29T00:29:44.994Z,0.00
2019-03-29T00:30:45.237Z,0.00
2019-03-29T00:31:45.278Z,0.00
2019-03-29T00:32:45.431Z,0.00
2019-03-29T00:33:45.540Z,0.00
2019-03-29T00:34:45.690Z,0.00
2019-03-29T00:35:45.811Z,0.00
2019-03-29T00:36:45.939Z,0.00
2019-03-29T00:37:53.427Z,0.00
2019-03-29T00:38:46.207Z,0.00
2019-03-29T00:39:46.332Z,0.00
2019-03-29T00:40:46.475Z,0.00
2019-03-29T00:41:46.608Z,0.00
2019-03-29T00:42:46.740Z,0.00
2019-03-29T00:43:46.867Z,0.00
2019-03-29T00:44:47.025Z,0.00
2019-03-29T00:45:47.157Z,0.00
2019-03-29T00:46:47.281Z,0.00
2019-03-29T00:47:47.411Z,0.00
2019-03-29T00:48:48.154Z,0.00
2019-03-29T00:49:47.688Z,0.00
2019-03-29T00:50:47.815Z,0.00
2019-03-29T00:51:47.971Z,0.00
2019-03-29T00:52:48.089Z,0.00
2019-03-29T00:53:48.231Z,0.00
2019-03-29T00:54:48.375Z,0.00
2019-03-29T00:55:48.524Z,0.00
2019-03-29T00:56:48.631Z,0.00
2019-03-29T00:57:48.761Z,0.00
2019-03-29T00:58:49.098Z,0.00
2019-03-29T00:59:49.040Z,0.00
2019-03-29T01:00:49.172Z,0.00
2019-03-29T01:01:49.343Z,0.00
2019-03-29T01:02:49.474Z,0.00
2019-03-29T01:03:49.604Z,0.00
2019-03-29T01:04:49.730Z,0.00
2019-03-29T01:05:49.880Z,0.00
2019-03-29T01:06:50.000Z,0.00
2019-03-29T01:07:50.143Z,0.00
2019-03-29T01:08:50.283Z,0.00
2019-03-29T01:09:50.417Z,0.00
2019-03-29T01:10:50.542Z,0.00
2019-03-29T01:11:50.669Z,0.00
2019-03-29T01:12:50.816Z,0.00
2019-03-29T01:13:50.978Z,0.00
2019-03-29T01:14:51.067Z,0.00
2019-03-29T01:15:51.203Z,0.00
2019-03-29T01:16:51.344Z,0.00
2019-03-29T01:17:51.468Z,0.00
2019-03-29T01:18:51.599Z,0.00
2019-03-29T01:19:51.737Z,0.00
2019-03-29T01:20:51.858Z,0.00
2019-03-29T01:21:51.991Z,0.00
2019-03-29T01:22:52.130Z,0.00
2019-03-29T01:23:52.267Z,0.00
2019-03-29T01:24:52.388Z,0.00
2019-03-29T01:25:52.525Z,0.00
2019-03-29T01:26:53.108Z,0.00
2019-03-29T01:27:52.793Z,0.00
2019-03-29T01:28:52.920Z,0.00
2019-03-29T01:29:53.059Z,0.00
2019-03-29T01:30:53.190Z,0.00
2019-03-29T01:31:53.320Z,0.00
2019-03-29T01:32:53.446Z,0.00
2019-03-29T01:33:53.600Z,0.00
2019-03-29T01:34:53.742Z,0.00
2019-03-29T01:35:53.877Z,0.00
2019-03-29T01:36:54.119Z,0.00
2019-03-29T01:37:54.162Z,0.00
2019-03-29T01:38:54.287Z,0.00
2019-03-29T01:39:54.417Z,0.00
2019-03-29T01:40:54.542Z,0.00
2019-03-29T01:41:54.681Z,0.00
2019-03-29T01:42:54.816Z,0.00
2019-03-29T01:43:54.937Z,0.00
2019-03-29T01:44:55.069Z,0.00
2019-03-29T01:45:55.220Z,0.00
2019-03-29T01:46:55.346Z,0.00
2019-03-29T01:47:56.135Z,0.00
2019-03-29T01:48:55.651Z,0.00
2019-03-29T01:49:55.872Z,0.00
2019-03-29T01:50:55.912Z,0.00
2019-03-29T01:51:56.047Z,0.00
2019-03-29T01:52:56.217Z,0.00
2019-03-29T01:53:56.332Z,0.00
2019-03-29T01:54:57.113Z,0.00
2019-03-29T01:55:56.587Z,0.00
2019-03-29T01:56:56.729Z,0.00
2019-03-29T01:57:56.938Z,0.00
2019-03-29T01:58:56.941Z,0.00
2019-03-29T01:59:57.071Z,0.00
2019-03-29T02:00:57.260Z,0.00
2019-03-29T02:01:57.375Z,0.00
2019-03-29T02:02:57.511Z,0.00
2019-03-29T02:03:57.643Z,0.00
2019-03-29T02:04:57.794Z,0.00
2019-03-29T02:05:57.912Z,0.00
2019-03-29T02:06:58.044Z,0.00
2019-03-29T02:07:58.194Z,0.00
2019-03-29T02:08:58.329Z,0.00
2019-03-29T02:09:58.463Z,0.00
2019-03-29T02:10:58.612Z,0.00
2019-03-29T02:11:58.743Z,0.00
2019-03-29T02:12:59.212Z,0.00
2019-03-29T02:13:59.005Z,0.00
2019-03-29T02:14:59.136Z,0.00
2019-03-29T02:15:59.259Z,0.00
2019-03-29T02:16:59.393Z,0.00
2019-03-29T02:17:59.591Z,0.00
2019-03-29T02:18:59.677Z,0.00
2019-03-29T02:19:59.841Z,0.00
2019-03-29T02:20:59.974Z,0.00
2019-03-29T02:22:00.094Z,0.00
2019-03-29T02:23:00.224Z,0.00
2019-03-29T02:24:00.382Z,0.00
2019-03-29T02:25:00.499Z,0.00
2019-03-29T02:26:00.632Z,0.00
2019-03-29T02:27:00.990Z,0.00
2019-03-29T02:28:00.900Z,0.00
2019-03-29T02:29:01.026Z,0.00
2019-03-29T02:30:01.156Z,0.00
2019-03-29T02:31:01.294Z,0.00
2019-03-29T02:32:01.442Z,0.00
2019-03-29T02:33:01.571Z,0.00
2019-03-29T02:34:01.703Z,0.00
2019-03-29T02:35:01.844Z,0.00
2019-03-29T02:36:02.006Z,0.00
2019-03-29T02:37:02.653Z,0.00
2019-03-29T02:38:02.259Z,0.00
2019-03-29T02:39:02.392Z,0.00
2019-03-29T02:40:02.556Z,0.00
2019-03-29T02:41:02.687Z,0.00
2019-03-29T02:42:03.725Z,0.00
2019-03-29T02:43:02.969Z,0.00
2019-03-29T02:44:03.136Z,0.00
2019-03-29T02:45:03.563Z,0.00
2019-03-29T02:46:03.411Z,0.00
2019-03-29T02:47:03.522Z,0.00
2019-03-29T02:48:03.660Z,0.00
2019-03-29T02:49:03.817Z,0.00
2019-03-29T02:50:03.955Z,0.00
2019-03-29T02:51:04.787Z,0.00
2019-03-29T02:52:04.214Z,0.00
2019-03-29T02:53:04.348Z,0.00
2019-03-29T02:54:04.474Z,0.00
2019-03-29T02:55:04.602Z,0.00
2019-03-29T02:56:04.729Z,0.00
2019-03-29T02:57:04.875Z,0.00
2019-03-29T02:58:05.006Z,0.00
2019-03-29T02:59:05.138Z,0.00
2019-03-29T03:00:05.279Z,0.00
2019-03-29T03:01:05.425Z,0.00
2019-03-29T03:02:05.682Z,0.00
2019-03-29T03:03:05.679Z,0.00
2019-03-29T03:04:05.794Z,0.00
2019-03-29T03:05:05.976Z,0.00
2019-03-29T03:06:06.120Z,0.00
2019-03-29T03:07:06.235Z,0.00
2019-03-29T03:08:06.401Z,0.00
2019-03-29T03:09:13.881Z,0.00
2019-03-29T03:10:06.628Z,0.00
2019-03-29T03:11:06.763Z,0.00
2019-03-29T03:12:06.887Z,0.00
2019-03-29T03:13:07.077Z,0.00
2019-03-29T03:14:07.181Z,0.00
2019-03-29T03:15:07.313Z,0.00
2019-03-29T03:16:07.442Z,0.00
2019-03-29T03:17:07.587Z,0.00
2019-03-29T03:18:07.709Z,0.00
2019-03-29T03:19:07.836Z,0.00
2019-03-29T03:20:07.984Z,0.00
2019-03-29T03:21:08.131Z,0.00
2019-03-29T03:22:08.244Z,0.00
2019-03-29T03:23:08.394Z,0.00
2019-03-29T03:24:08.518Z,0.00
2019-03-29T03:25:08.652Z,0.00
2019-03-29T03:26:08.809Z,0.00
2019-03-29T03:27:08.929Z,0.00
2019-03-29T03:28:09.063Z,0.00
2019-03-29T03:29:09.190Z,0.00
2019-03-29T03:30:09.358Z,0.00
2019-03-29T03:31:09.478Z,0.00
2019-03-29T03:32:09.602Z,0.00
2019-03-29T03:33:09.736Z,0.00
2019-03-29T03:34:09.881Z,0.00
2019-03-29T03:35:10.018Z,0.00
2019-03-29T03:36:10.160Z,0.00
2019-03-29T03:37:10.275Z,0.00
2019-03-29T03:38:10.427Z,0.00
2019-03-29T03:39:10.553Z,0.00
2019-03-29T03:40:10.677Z,0.00
2019-03-29T03:41:10.812Z,0.00
2019-03-29T03:42:10.963Z,0.00
2019-03-29T03:43:11.088Z,0.00
2019-03-29T03:44:11.224Z,0.00
2019-03-29T03:45:11.366Z,0.00
2019-03-29T03:46:11.490Z,0.00
2019-03-29T03:47:11.623Z,0.00
2019-03-29T03:48:11.744Z,0.00
2019-03-29T03:49:11.904Z,0.00
2019-03-29T03:50:12.033Z,0.00
2019-03-29T03:51:12.166Z,0.00
2019-03-29T03:52:12.285Z,0.00
2019-03-29T03:53:12.435Z,0.00
2019-03-29T03:54:12.555Z,0.00
2019-03-29T03:55:12.688Z,0.00
2019-03-29T03:56:12.828Z,0.00
2019-03-29T03:57:12.959Z,0.00
2019-03-29T03:58:13.086Z,0.00
2019-03-29T03:59:13.235Z,0.00
2019-03-29T04:00:13.366Z,0.00
2019-03-29T04:01:13.491Z,0.00
2019-03-29T04:02:13.619Z,0.00
2019-03-29T04:03:13.761Z,0.00
2019-03-29T04:04:13.943Z,0.00
2019-03-29T04:05:14.054Z,0.00
2019-03-29T04:06:14.179Z,0.00
2019-03-29T04:07:14.307Z,0.00
2019-03-29T04:08:14.471Z,0.00
2019-03-29T04:09:14.582Z,0.00
2019-03-29T04:10:14.714Z,0.00
2019-03-29T04:11:14.846Z,0.00
2019-03-29T04:12:14.994Z,0.00
2019-03-29T04:13:15.128Z,0.00
2019-03-29T04:14:15.262Z,0.00
2019-03-29T04:15:15.396Z,0.00
2019-03-29T04:16:15.539Z,0.00
2019-03-29T04:17:15.663Z,0.00
2019-03-29T04:18:16.631Z,0.00
2019-03-29T04:19:15.925Z,0.00
2019-03-29T04:20:16.071Z,0.00
2019-03-29T04:21:16.197Z,0.00
2019-03-29T04:22:16.494Z,0.00
2019-03-29T04:23:16.458Z,0.00
2019-03-29T04:24:16.608Z,0.00
2019-03-29T04:25:16.738Z,0.00
2019-03-29T04:26:16.867Z,0.00
2019-03-29T04:27:17.001Z,0.00
2019-03-29T04:28:17.145Z,0.00
2019-03-29T04:29:17.263Z,0.00
2019-03-29T04:30:17.411Z,0.00
2019-03-29T04:31:17.543Z,0.00
2019-03-29T04:32:17.668Z,0.00
2019-03-29T04:33:17.807Z,0.00
2019-03-29T04:34:17.947Z,0.00
2019-03-29T04:35:18.065Z,0.00
2019-03-29T04:36:18.201Z,0.00
2019-03-29T04:37:18.399Z,0.00
2019-03-29T04:38:18.476Z,0.00
2019-03-29T04:39:18.609Z,0.00
2019-03-29T04:40:18.736Z,4.00
2019-03-29T04:41:18.901Z,4.00
2019-03-29T04:42:19.016Z,0.00
2019-03-29T04:43:19.147Z,4.00
2019-03-29T04:44:19.313Z,4.00
2019-03-29T04:45:19.433Z,4.00
2019-03-29T04:46:19.563Z,8.00
2019-03-29T04:47:19.701Z,4.00
2019-03-29T04:48:19.835Z,8.00
2019-03-29T04:49:19.953Z,8.00
2019-03-29T04:50:20.088Z,8.00
2019-03-29T04:51:20.255Z,12.00
2019-03-29T04:52:20.368Z,12.00
2019-03-29T04:53:20.498Z,16.00
2019-03-29T04:54:20.625Z,16.00
2019-03-29T04:55:20.766Z,20.00
2019-03-29T04:56:20.895Z,20.00
2019-03-29T04:57:21.024Z,24.00
2019-03-29T04:58:21.179Z,32.00
2019-03-29T04:59:21.367Z,32.00
2019-03-29T05:00:21.429Z,36.00
2019-03-29T05:01:21.559Z,44.00
2019-03-29T05:02:21.715Z,48.00
2019-03-29T05:03:21.835Z,56.00
2019-03-29T05:04:21.963Z,64.00
2019-03-29T05:05:22.126Z,64.00
2019-03-29T05:06:22.254Z,72.00
2019-03-29T05:07:22.391Z,80.00
2019-03-29T05:08:22.509Z,88.00
2019-03-29T05:09:22.638Z,92.00
2019-03-29T05:10:22.778Z,100.00
2019-03-29T05:11:22.919Z,108.00
2019-03-29T05:12:23.044Z,116.00
2019-03-29T05:13:23.180Z,124.00
2019-03-29T05:14:23.321Z,136.00
2019-03-29T05:15:23.451Z,148.00
2019-03-29T05:16:23.580Z,160.00
2019-03-29T05:17:23.717Z,172.00
2019-03-29T05:18:23.860Z,184.00
2019-03-29T05:19:23.973Z,196.00
2019-03-29T05:20:24.114Z,212.00
2019-03-29T05:21:24.246Z,224.00
2019-03-29T05:22:24.415Z,240.00
2019-03-29T05:23:24.528Z,256.00
2019-03-29T05:24:24.657Z,276.00
2019-03-29T05:25:24.792Z,288.00
2019-03-29T05:26:25.602Z,308.00
2019-03-29T05:27:25.069Z,324.00
2019-03-29T05:28:25.181Z,340.00
2019-03-29T05:29:25.323Z,356.00
2019-03-29T05:30:25.445Z,376.00
2019-03-29T05:31:25.577Z,392.00
2019-03-29T05:32:25.704Z,420.00
2019-03-29T05:33:25.855Z,440.00
2019-03-29T05:34:25.976Z,472.00
2019-03-29T05:35:26.103Z,496.00
2019-03-29T05:36:26.229Z,532.00
2019-03-29T05:37:26.385Z,564.00
2019-03-29T05:38:26.505Z,600.00
2019-03-29T05:39:26.639Z,632.00
2019-03-29T05:40:34.698Z,660.00
2019-03-29T05:41:26.906Z,696.00
2019-03-29T05:42:27.026Z,728.00
2019-03-29T05:43:27.274Z,756.00
2019-03-29T05:44:27.326Z,796.00
2019-03-29T05:45:27.447Z,848.00
2019-03-29T05:46:27.578Z,860.00
2019-03-29T05:47:27.723Z,888.00
2019-03-29T05:48:27.835Z,928.00
2019-03-29T05:49:27.999Z,956.00
2019-03-29T05:50:28.127Z,988.00
2019-03-29T05:51:28.258Z,1028.00
2019-03-29T05:52:28.399Z,1072.00
2019-03-29T05:53:28.517Z,1108.00
2019-03-29T05:54:28.646Z,1192.00
2019-03-29T05:55:32.772Z,1204.00
2019-03-29T05:56:28.905Z,1220.00
2019-03-29T05:57:29.069Z,1280.00
2019-03-29T05:58:29.187Z,1324.00
2019-03-29T05:59:29.317Z,1352.00
2019-03-29T06:00:29.468Z,1356.00
2019-03-29T06:01:29.595Z,1384.00
2019-03-29T06:02:29.725Z,1408.00
2019-03-29T06:03:29.862Z,1412.00
2019-03-29T06:04:30.044Z,1508.00
2019-03-29T06:05:30.136Z,1420.00
2019-03-29T06:06:30.271Z,1408.00
2019-03-29T06:07:30.395Z,1392.00
2019-03-29T06:08:30.543Z,1416.00
2019-03-29T06:09:30.674Z,1484.00
2019-03-29T06:10:30.810Z,1492.00
2019-03-29T06:11:30.966Z,1508.00
2019-03-29T06:12:31.102Z,1508.00
2019-03-29T06:13:31.223Z,1516.00
2019-03-29T06:14:31.353Z,1480.00
2019-03-29T06:15:31.512Z,1528.00
2019-03-29T06:16:38.936Z,1520.00
2019-03-29T06:17:31.767Z,1576.00
2019-03-29T06:18:31.927Z,1628.00
2019-03-29T06:19:32.055Z,1664.00
2019-03-29T06:20:32.189Z,1700.00
2019-03-29T06:21:32.330Z,1716.00
2019-03-29T06:22:32.444Z,1744.00
2019-03-29T06:23:32.592Z,1764.00
2019-03-29T06:24:32.729Z,1800.00
2019-03-29T06:25:32.868Z,1836.00
2019-03-29T06:26:32.990Z,1868.00
2019-03-29T06:27:33.126Z,1888.00
2019-03-29T06:28:33.270Z,1912.00
2019-03-29T06:29:33.406Z,1936.00
2019-03-29T06:30:33.536Z,1964.00
2019-03-29T06:31:33.684Z,1988.00
2019-03-29T06:32:33.818Z,2020.00
2019-03-29T06:33:33.938Z,2040.00
2019-03-29T06:34:34.074Z,2072.00
2019-03-29T06:35:34.198Z,2088.00
2019-03-29T06:36:34.371Z,2104.00
2019-03-29T06:37:34.487Z,2120.00
2019-03-29T06:38:34.609Z,2160.00
2019-03-29T06:39:34.755Z,2204.00
2019-03-29T06:40:34.883Z,2272.00
2019-03-29T06:41:35.023Z,2328.00
2019-03-29T06:42:35.150Z,2352.00
2019-03-29T06:43:35.268Z,2364.00
2019-03-29T06:44:35.423Z,2392.00
2019-03-29T06:45:47.122Z,2436.00
2019-03-29T06:46:35.683Z,2480.00
2019-03-29T06:47:35.809Z,2520.00
2019-03-29T06:48:36.062Z,2568.00
2019-03-29T06:49:36.084Z,2628.00
2019-03-29T06:50:36.251Z,2684.00
2019-03-29T06:51:36.353Z,2744.00
2019-03-29T06:52:36.502Z,2832.00
2019-03-29T06:53:36.644Z,3292.00
2019-03-29T06:54:36.764Z,3284.00
2019-03-29T06:55:36.912Z,3284.00
2019-03-29T06:56:37.035Z,3400.00
2019-03-29T06:57:37.161Z,3456.00
2019-03-29T06:58:37.286Z,3492.00
2019-03-29T06:59:37.432Z,3688.00
2019-03-29T07:00:37.548Z,3704.00
2019-03-29T07:01:37.660Z,3752.00
2019-03-29T07:02:37.792Z,3760.00
2019-03-29T07:03:37.970Z,3752.00
2019-03-29T07:04:38.064Z,3796.00
2019-03-29T07:05:38.180Z,3888.00
2019-03-29T07:06:38.336Z,3912.00
2019-03-29T07:07:38.456Z,3904.00
2019-03-29T07:08:38.600Z,3880.00
2019-03-29T07:09:38.710Z,3824.00
2019-03-29T07:10:38.928Z,3744.00
2019-03-29T07:11:39.747Z,3624.00
2019-03-29T07:12:39.112Z,3504.00
2019-03-29T07:13:39.236Z,3400.00
2019-03-29T07:14:39.382Z,3332.00
2019-03-29T07:15:39.501Z,3312.00
2019-03-29T07:16:39.636Z,3292.00
2019-03-29T07:17:39.765Z,3228.00
2019-03-29T07:18:39.892Z,3140.00
2019-03-29T07:19:40.022Z,3048.00
2019-03-29T07:20:40.165Z,2936.00
2019-03-29T07:21:40.292Z,2848.00
2019-03-29T07:22:40.419Z,2856.00
2019-03-29T07:23:40.551Z,2852.00
2019-03-29T07:24:40.676Z,2852.00
2019-03-29T07:25:40.809Z,2864.00
2019-03-29T07:26:40.970Z,2860.00
2019-03-29T07:27:46.770Z,2768.00
2019-03-29T07:28:41.200Z,2712.00
2019-03-29T07:29:41.331Z,2692.00
2019-03-29T07:30:41.466Z,2748.00
2019-03-29T07:31:41.591Z,2816.00
2019-03-29T07:32:41.722Z,2836.00
2019-03-29T07:33:41.854Z,2896.00
2019-03-29T07:34:41.989Z,2976.00
2019-03-29T07:35:42.111Z,3068.00
2019-03-29T07:36:42.250Z,3092.00
2019-03-29T07:37:42.368Z,3104.00
2019-03-29T07:38:42.503Z,3116.00
2019-03-29T07:39:42.636Z,3132.00
2019-03-29T07:40:42.767Z,3140.00
2019-03-29T07:41:42.908Z,3076.00
2019-03-29T07:42:43.079Z,3064.00
2019-03-29T07:43:43.177Z,3056.00
2019-03-29T07:44:43.304Z,3148.00
2019-03-29T07:45:43.436Z,3176.00
2019-03-29T07:46:43.569Z,3200.00
2019-03-29T07:47:43.698Z,3216.00
2019-03-29T07:48:43.830Z,3236.00
2019-03-29T07:49:43.966Z,3248.00
2019-03-29T07:50:44.096Z,3260.00
2019-03-29T07:51:44.220Z,3260.00
2019-03-29T07:52:44.355Z,3260.00
2019-03-29T07:53:45.073Z,3264.00
2019-03-29T07:54:44.617Z,3268.00
2019-03-29T07:55:44.750Z,3264.00
2019-03-29T07:56:44.885Z,3264.00
2019-03-29T07:57:45.030Z,3224.00
2019-03-29T07:58:45.147Z,3220.00
2019-03-29T07:59:45.284Z,3220.00
2019-03-29T08:00:45.409Z,3268.00
2019-03-29T08:01:45.577Z,3276.00
2019-03-29T08:02:45.714Z,3288.00
2019-03-29T08:03:45.846Z,3296.00
2019-03-29T08:04:46.630Z,3328.00
2019-03-29T08:05:46.129Z,3352.00
2019-03-29T08:06:46.627Z,3356.00
2019-03-29T08:07:46.372Z,3388.00
2019-03-29T08:08:46.507Z,3284.00
2019-03-29T08:09:46.658Z,3432.00
2019-03-29T08:10:46.790Z,3512.00
2019-03-29T08:11:46.959Z,3568.00
2019-03-29T08:12:47.048Z,3616.00
2019-03-29T08:13:47.231Z,3644.00
2019-03-29T08:14:47.353Z,3656.00
2019-03-29T08:15:47.489Z,3660.00
2019-03-29T08:16:47.659Z,3672.00
2019-03-29T08:17:47.771Z,3684.00
2019-03-29T08:18:47.902Z,3692.00
2019-03-29T08:20:02.454Z,3692.00
2019-03-29T08:20:48.168Z,3692.00
2019-03-29T08:21:48.306Z,3688.00
2019-03-29T08:22:48.430Z,3696.00
2019-03-29T08:23:48.576Z,3696.00
2019-03-29T08:24:48.771Z,3712.00
2019-03-29T08:25:48.833Z,3720.00
2019-03-29T08:26:48.962Z,3744.00
2019-03-29T08:27:49.090Z,3780.00
2019-03-29T08:28:49.249Z,3820.00
2019-03-29T08:29:49.355Z,3820.00
2019-03-29T08:30:49.487Z,3824.00
2019-03-29T08:31:49.617Z,3844.00
2019-03-29T08:32:49.765Z,3872.00
2019-03-29T08:33:49.893Z,3936.00
2019-03-29T08:34:50.027Z,4024.00
2019-03-29T08:35:50.154Z,4128.00
2019-03-29T08:36:50.371Z,4264.00
2019-03-29T08:37:50.435Z,4404.00
2019-03-29T08:38:50.570Z,4476.00
2019-03-29T08:39:50.699Z,4504.00
2019-03-29T08:40:50.849Z,4592.00
2019-03-29T08:41:59.911Z,4760.00
2019-03-29T08:42:51.096Z,4984.00
2019-03-29T08:43:51.233Z,5212.00
2019-03-29T08:44:51.368Z,5392.00
2019-03-29T08:45:51.497Z,5556.00
2019-03-29T08:46:51.625Z,5708.00
2019-03-29T08:47:51.775Z,5840.00
2019-03-29T08:48:51.896Z,5956.00
2019-03-29T08:49:52.029Z,6036.00
2019-03-29T08:50:52.164Z,6116.00
2019-03-29T08:51:52.307Z,6092.00
2019-03-29T08:52:52.446Z,5964.00
2019-03-29T08:53:52.581Z,6136.00
2019-03-29T08:54:52.715Z,6212.00
2019-03-29T08:55:52.859Z,6468.00
2019-03-29T08:56:52.988Z,6416.00
2019-03-29T08:57:53.140Z,6376.00
2019-03-29T08:58:53.258Z,6616.00
2019-03-29T08:59:53.389Z,7020.00
2019-03-29T09:00:53.524Z,7280.00
2019-03-29T09:01:53.653Z,7508.00
2019-03-29T09:02:53.787Z,7628.00
2019-03-29T09:04:04.727Z,8040.00
2019-03-29T09:04:54.048Z,8180.00
2019-03-29T09:05:54.178Z,8192.00
2019-03-29T09:06:54.409Z,8224.00
2019-03-29T09:07:54.440Z,7636.00
2019-03-29T09:08:54.574Z,7444.00
2019-03-29T09:09:54.698Z,7596.00
2019-03-29T09:10:54.841Z,7312.00
2019-03-29T09:11:54.976Z,7292.00
2019-03-29T09:12:55.116Z,7068.00
2019-03-29T09:13:55.240Z,7080.00
2019-03-29T09:14:55.369Z,7392.00
2019-03-29T09:15:55.510Z,7172.00
2019-03-29T09:16:55.638Z,7356.00
2019-03-29T09:17:55.771Z,7340.00
2019-03-29T09:18:55.905Z,7452.00
2019-03-29T09:19:56.030Z,7628.00
2019-03-29T09:20:56.157Z,8324.00
2019-03-29T09:21:56.289Z,8760.00
2019-03-29T09:22:56.432Z,8984.00
2019-03-29T09:23:56.560Z,9152.00
2019-03-29T09:24:56.697Z,9456.00
2019-03-29T09:25:56.829Z,9172.00
2019-03-29T09:26:56.968Z,8832.00
2019-03-29T09:27:57.106Z,8704.00
2019-03-29T09:28:57.228Z,8524.00
2019-03-29T09:29:57.359Z,8360.00
2019-03-29T09:30:57.497Z,7960.00
2019-03-29T09:31:57.652Z,7776.00
2019-03-29T09:32:57.766Z,7740.00
2019-03-29T09:33:58.734Z,7816.00
2019-03-29T09:34:58.031Z,7968.00
2019-03-29T09:35:58.151Z,8100.00
2019-03-29T09:36:59.968Z,8324.00
2019-03-29T09:37:58.428Z,8204.00
2019-03-29T09:38:58.558Z,8476.00
2019-03-29T09:39:58.687Z,8564.00
2019-03-29T09:40:59.375Z,8780.00
2019-03-29T09:41:58.954Z,9008.00
2019-03-29T09:43:07.045Z,9316.00
2019-03-29T09:43:59.224Z,10220.00
2019-03-29T09:44:59.355Z,9800.00
2019-03-29T09:46:03.001Z,9564.00
2019-03-29T09:46:59.613Z,9968.00
2019-03-29T09:47:59.752Z,10336.00
2019-03-29T09:48:59.871Z,11012.00
2019-03-29T09:50:00.003Z,11196.00
2019-03-29T09:51:00.149Z,11464.00
2019-03-29T09:52:00.276Z,11528.00
2019-03-29T09:53:01.437Z,11344.00
2019-03-29T09:54:00.542Z,11516.00
2019-03-29T09:55:00.676Z,11928.00
2019-03-29T09:56:00.794Z,12344.00
2019-03-29T09:57:00.929Z,11552.00
2019-03-29T09:58:01.063Z,10792.00
2019-03-29T09:59:01.193Z,10156.00
2019-03-29T10:00:01.324Z,10748.00
2019-03-29T10:01:01.465Z,10912.00
2019-03-29T10:02:01.602Z,11960.00
2019-03-29T10:03:01.731Z,12232.00
2019-03-29T10:04:01.858Z,12208.00
2019-03-29T10:05:01.995Z,12640.00
2019-03-29T10:06:02.127Z,12076.00
2019-03-29T10:07:02.256Z,11900.00
2019-03-29T10:08:02.389Z,11868.00
2019-03-29T10:09:02.526Z,12144.00
2019-03-29T10:10:02.659Z,12800.00
2019-03-29T10:11:02.783Z,12628.00
2019-03-29T10:12:02.915Z,12908.00
2019-03-29T10:13:03.058Z,13760.00
2019-03-29T10:14:03.185Z,14760.00
2019-03-29T10:15:03.323Z,14952.00
2019-03-29T10:16:03.444Z,14560.00
2019-03-29T10:17:03.609Z,13692.00
2019-03-29T10:18:03.713Z,13256.00
2019-03-29T10:19:03.852Z,12780.00
2019-03-29T10:20:03.989Z,10924.00
2019-03-29T10:21:04.119Z,10796.00
2019-03-29T10:22:04.243Z,12304.00
2019-03-29T10:23:04.375Z,12560.00
2019-03-29T10:24:04.503Z,11828.00
2019-03-29T10:25:18.371Z,11488.00
2019-03-29T10:26:04.780Z,11976.00
2019-03-29T10:27:04.900Z,12668.00
2019-03-29T10:28:05.036Z,14748.00
2019-03-29T10:29:05.167Z,14176.00
2019-03-29T10:30:05.306Z,14104.00
2019-03-29T10:31:05.431Z,13620.00
2019-03-29T10:32:09.261Z,13300.00
2019-03-29T10:33:05.697Z,12576.00
2019-03-29T10:34:05.840Z,12028.00
2019-03-29T10:35:05.973Z,12164.00
2019-03-29T10:36:06.121Z,12188.00
2019-03-29T10:37:06.271Z,12416.00
2019-03-29T10:38:06.403Z,12748.00
2019-03-29T10:39:06.541Z,13956.00
2019-03-29T10:40:06.685Z,14880.00
2019-03-29T10:41:06.815Z,15220.00
2019-03-29T10:42:06.957Z,16644.00
2019-03-29T10:43:07.100Z,16312.00
2019-03-29T10:44:07.226Z,15444.00
2019-03-29T10:45:07.361Z,38464.00
2019-03-29T10:46:07.494Z,17888.00
2019-03-29T10:47:07.631Z,16400.00
2019-03-29T10:48:07.752Z,16676.00
2019-03-29T10:49:07.891Z,17344.00
2019-03-29T10:50:08.024Z,22528.00
2019-03-29T10:51:08.616Z,48832.00
2019-03-29T10:52:08.294Z,44480.00
2019-03-29T10:53:08.425Z,40064.00
2019-03-29T10:54:08.555Z,44224.00
2019-03-29T10:55:08.686Z,55328.00
2019-03-29T10:56:08.825Z,41120.00
2019-03-29T10:57:08.954Z,36896.00
2019-03-29T10:58:09.860Z,71392.00
2019-03-29T10:59:09.225Z,78944.00
2019-03-29T11:00:09.361Z,65856.00
2019-03-29T11:01:09.499Z,81344.00
2019-03-29T11:02:09.638Z,75648.00
2019-03-29T11:03:09.771Z,67840.00
2019-03-29T11:04:09.912Z,83328.00
2019-03-29T11:05:10.044Z,96608.00
2019-03-29T11:06:10.201Z,117120.00
2019-03-29T11:07:10.328Z,105312.00
2019-03-29T11:08:12.089Z,105472.00
2019-03-29T11:09:10.608Z,89184.00
2019-03-29T11:10:10.744Z,66432.00
2019-03-29T11:11:10.893Z,74848.00
2019-03-29T11:12:11.032Z,82208.00
2019-03-29T11:13:13.968Z,39616.00
2019-03-29T11:14:11.313Z,42496.00
2019-03-29T11:15:11.467Z,37728.00
2019-03-29T11:16:11.594Z,42080.00
2019-03-29T11:17:11.736Z,48896.00
2019-03-29T11:18:11.881Z,70720.00
2019-03-29T11:19:12.029Z,54432.00
2019-03-29T11:20:12.176Z,65568.00
2019-03-29T11:21:12.312Z,61408.00
2019-03-29T11:22:12.448Z,44864.00
2019-03-29T11:23:12.601Z,47840.00
2019-03-29T11:24:12.733Z,60896.00
2019-03-29T11:25:12.876Z,73184.00
2019-03-29T11:26:13.019Z,76960.00
2019-03-29T11:27:13.156Z,76576.00
2019-03-29T11:28:13.298Z,64832.00
2019-03-29T11:29:13.449Z,60096.00
2019-03-29T11:30:13.599Z,63040.00
2019-03-29T11:31:13.740Z,57760.00
2019-03-29T11:32:13.870Z,45952.00
2019-03-29T11:33:14.009Z,35808.00
2019-03-29T11:34:14.139Z,56800.00
2019-03-29T11:35:14.279Z,63552.00
2019-03-29T11:36:14.429Z,60512.00
2019-03-29T11:37:14.567Z,67936.00
2019-03-29T11:38:14.704Z,68480.00
2019-03-29T11:39:14.851Z,72800.00
2019-03-29T11:40:14.994Z,85280.00
2019-03-29T11:41:15.138Z,92928.00
2019-03-29T11:42:15.272Z,90656.00
2019-03-29T11:43:26.101Z,73568.00
2019-03-29T11:44:15.560Z,58304.00
2019-03-29T11:45:15.703Z,76416.00
2019-03-29T11:46:15.852Z,77248.00
2019-03-29T11:47:15.994Z,77088.00
2019-03-29T11:48:16.143Z,78112.00
2019-03-29T11:49:16.290Z,69248.00
2019-03-29T11:50:16.436Z,63616.00
2019-03-29T11:51:19.769Z,63296.00
2019-03-29T11:52:16.775Z,78176.00
2019-03-29T11:53:16.884Z,93312.00
2019-03-29T11:54:17.051Z,76736.00
2019-03-29T11:55:17.181Z,72384.00
2019-03-29T11:56:17.326Z,70144.00
2019-03-29T11:57:17.473Z,51584.00
2019-03-29T11:58:17.625Z,46272.00
2019-03-29T11:59:17.824Z,51616.00
2019-03-29T12:00:17.963Z,57312.00
2019-03-29T12:01:18.113Z,52576.00
2019-03-29T12:02:30.609Z,50112.00
2019-03-29T12:03:18.437Z,68704.00
2019-03-29T12:04:18.549Z,64192.00
2019-03-29T12:05:18.709Z,62912.00
2019-03-29T12:06:18.853Z,48384.00
2019-03-29T12:07:18.988Z,56000.00
2019-03-29T12:08:19.156Z,50656.00
2019-03-29T12:09:19.338Z,54304.00
2019-03-29T12:10:19.472Z,82816.00
2019-03-29T12:11:19.609Z,100288.00
2019-03-29T12:12:19.758Z,97248.00
2019-03-29T12:13:19.908Z,86976.00
2019-03-29T12:14:20.077Z,67808.00
2019-03-29T12:15:20.204Z,50400.00
2019-03-29T12:16:20.361Z,40448.00
2019-03-29T12:17:20.497Z,39488.00
2019-03-29T12:18:20.645Z,47232.00
2019-03-29T12:19:20.790Z,57056.00
2019-03-29T12:20:20.942Z,69408.00
2019-03-29T12:21:21.119Z,84768.00
2019-03-29T12:22:21.258Z,89760.00
2019-03-29T12:23:21.410Z,90880.00
2019-03-29T12:24:21.559Z,93696.00
2019-03-29T12:25:21.729Z,86432.00
2019-03-29T12:26:21.855Z,82976.00
2019-03-29T12:27:21.999Z,73376.00
2019-03-29T12:28:22.160Z,69600.00
2019-03-29T12:29:22.319Z,68576.00
2019-03-29T12:30:31.149Z,73888.00
2019-03-29T12:31:22.620Z,79392.00